sensor_id;sensor_type;location;lat;lon;timestamp;pressure;altitude;pressure_sealevel;temperature;humidity
50430;BME280;36359;41.556;-8.418;2023-06-24T00:02:17;100271.84;;;26.09;76.84
50430;BME280;36359;41.556;-8.418;2023-06-24T00:04:42;100272.59;;;26.04;77.32
50430;BME280;36359;41.556;-8.418;2023-06-24T00:07:08;100271.94;;;25.97;77.49
50430;BME280;36359;41.556;-8.418;2023-06-24T00:11:59;100269.31;;;25.91;77.64
50430;BME280;36359;41.556;-8.418;2023-06-24T00:14:27;100270.06;;;25.86;78.01
50430;BME280;36359;41.556;-8.418;2023-06-24T00:16:53;100260.78;;;25.80;77.90
50430;BME280;36359;41.556;-8.418;2023-06-24T00:19:20;100254.88;;;25.60;79.44
50430;BME280;36359;41.556;-8.418;2023-06-24T00:21:50;100252.69;;;25.62;79.27
50430;BME280;36359;41.556;-8.418;2023-06-24T00:24:17;100253.25;;;25.64;79.14
50430;BME280;36359;41.556;-8.418;2023-06-24T00:26:43;100253.75;;;25.61;79.00
50430;BME280;36359;41.556;-8.418;2023-06-24T00:29:09;100259.66;;;25.65;77.80
50430;BME280;36359;41.556;-8.418;2023-06-24T00:31:36;100251.25;;;25.59;77.28
50430;BME280;36359;41.556;-8.418;2023-06-24T00:34:01;100256.53;;;25.61;76.34
50430;BME280;36359;41.556;-8.418;2023-06-24T00:36:27;100256.19;;;25.57;75.79
50430;BME280;36359;41.556;-8.418;2023-06-24T00:38:53;100255.38;;;25.57;75.55
50430;BME280;36359;41.556;-8.418;2023-06-24T00:41:19;100256.88;;;25.65;75.36
50430;BME280;36359;41.556;-8.418;2023-06-24T00:43:46;100249.53;;;25.58;75.26
50430;BME280;36359;41.556;-8.418;2023-06-24T00:46:11;100251.47;;;25.58;75.26
50430;BME280;36359;41.556;-8.418;2023-06-24T00:48:38;100242.81;;;25.54;75.16
50430;BME280;36359;41.556;-8.418;2023-06-24T00:51:03;100246.69;;;25.53;75.32
50430;BME280;36359;41.556;-8.418;2023-06-24T00:53:29;100246.75;;;25.58;74.86
50430;BME280;36359;41.556;-8.418;2023-06-24T00:55:55;100235.31;;;25.55;73.68
50430;BME280;36359;41.556;-8.418;2023-06-24T00:58:28;100237.69;;;25.63;72.66
50430;BME280;36359;41.556;-8.418;2023-06-24T01:00:56;100234.91;;;25.63;72.07
50430;BME280;36359;41.556;-8.418;2023-06-24T01:03:26;100229.34;;;25.63;71.42
50430;BME280;36359;41.556;-8.418;2023-06-24T01:05:56;100219.19;;;25.69;71.44
50430;BME280;36359;41.556;-8.418;2023-06-24T01:08:22;100230.63;;;25.72;70.65
50430;BME280;36359;41.556;-8.418;2023-06-24T01:10:50;100228.34;;;25.69;71.13
50430;BME280;36359;41.556;-8.418;2023-06-24T01:13:17;100225.81;;;25.68;71.33
50430;BME280;36359;41.556;-8.418;2023-06-24T01:15:44;100226.81;;;25.61;73.49
50430;BME280;36359;41.556;-8.418;2023-06-24T01:26:21;100229.78;;;25.72;75.23
50430;BME280;36359;41.556;-8.418;2023-06-24T01:28:55;100219.84;;;25.59;75.28
50430;BME280;36359;41.556;-8.418;2023-06-24T01:34:53;100211.09;;;25.50;75.65
50430;BME280;36359;41.556;-8.418;2023-06-24T01:37:37;100211.75;;;25.57;75.85
50430;BME280;36359;41.556;-8.418;2023-06-24T01:42:33;100211.94;;;25.51;77.55
50430;BME280;36359;41.556;-8.418;2023-06-24T01:45:01;100207.00;;;25.41;75.70
50430;BME280;36359;41.556;-8.418;2023-06-24T01:47:28;100199.13;;;25.33;75.30
50430;BME280;36359;41.556;-8.418;2023-06-24T01:50:01;100195.84;;;25.36;74.51
50430;BME280;36359;41.556;-8.418;2023-06-24T01:52:29;100201.97;;;25.38;74.75
50430;BME280;36359;41.556;-8.418;2023-06-24T01:54:56;100196.56;;;25.31;76.28
50430;BME280;36359;41.556;-8.418;2023-06-24T01:57:24;100194.47;;;25.22;77.55
50430;BME280;36359;41.556;-8.418;2023-06-24T01:59:54;100199.22;;;25.09;78.60
50430;BME280;36359;41.556;-8.418;2023-06-24T02:02:21;100192.94;;;25.02;77.42
50430;BME280;36359;41.556;-8.418;2023-06-24T02:04:52;100186.06;;;25.05;75.56
50430;BME280;36359;41.556;-8.418;2023-06-24T02:07:20;100188.84;;;25.05;74.13
50430;BME280;36359;41.556;-8.418;2023-06-24T02:09:48;100187.28;;;24.97;72.55
50430;BME280;36359;41.556;-8.418;2023-06-24T02:12:15;100191.38;;;25.06;71.49
50430;BME280;36359;41.556;-8.418;2023-06-24T02:14:41;100193.16;;;25.12;71.50
50430;BME280;36359;41.556;-8.418;2023-06-24T02:17:08;100185.91;;;25.11;69.77
50430;BME280;36359;41.556;-8.418;2023-06-24T02:19:36;100187.13;;;25.15;69.27
50430;BME280;36359;41.556;-8.418;2023-06-24T02:22:03;100187.13;;;25.15;68.37
50430;BME280;36359;41.556;-8.418;2023-06-24T02:24:36;100182.66;;;25.14;68.43
50430;BME280;36359;41.556;-8.418;2023-06-24T02:27:03;100179.47;;;25.23;69.82
50430;BME280;36359;41.556;-8.418;2023-06-24T02:29:30;100180.09;;;25.25;67.54
50430;BME280;36359;41.556;-8.418;2023-06-24T02:31:57;100182.28;;;25.11;68.64
50430;BME280;36359;41.556;-8.418;2023-06-24T02:34:24;100184.38;;;25.15;66.85
50430;BME280;36359;41.556;-8.418;2023-06-24T02:36:51;100184.22;;;25.10;68.40
50430;BME280;36359;41.556;-8.418;2023-06-24T02:39:16;100183.88;;;25.19;67.30
50430;BME280;36359;41.556;-8.418;2023-06-24T02:41:42;100174.13;;;25.04;69.49
50430;BME280;36359;41.556;-8.418;2023-06-24T02:44:09;100181.84;;;25.02;69.87
50430;BME280;36359;41.556;-8.418;2023-06-24T02:46:36;100168.78;;;25.14;73.25
50430;BME280;36359;41.556;-8.418;2023-06-24T02:49:02;100167.78;;;25.21;70.61
50430;BME280;36359;41.556;-8.418;2023-06-24T02:51:29;100179.88;;;25.14;71.98
50430;BME280;36359;41.556;-8.418;2023-06-24T02:53:56;100171.09;;;25.06;72.33
50430;BME280;36359;41.556;-8.418;2023-06-24T02:56:40;100174.19;;;24.92;73.57
50430;BME280;36359;41.556;-8.418;2023-06-24T02:59:10;100173.41;;;24.97;74.16
50430;BME280;36359;41.556;-8.418;2023-06-24T03:01:38;100173.34;;;24.92;73.85
50430;BME280;36359;41.556;-8.418;2023-06-24T03:04:10;100171.13;;;24.77;73.82
50430;BME280;36359;41.556;-8.418;2023-06-24T03:06:37;100162.34;;;24.68;75.64
50430;BME280;36359;41.556;-8.418;2023-06-24T03:09:05;100162.13;;;24.58;79.75
50430;BME280;36359;41.556;-8.418;2023-06-24T03:11:42;100157.72;;;24.45;83.06
50430;BME280;36359;41.556;-8.418;2023-06-24T03:14:10;100166.38;;;24.49;82.68
50430;BME280;36359;41.556;-8.418;2023-06-24T03:16:40;100171.28;;;24.59;81.68
50430;BME280;36359;41.556;-8.418;2023-06-24T03:19:15;100168.78;;;24.57;80.64
50430;BME280;36359;41.556;-8.418;2023-06-24T03:21:41;100161.94;;;24.48;80.69
50430;BME280;36359;41.556;-8.418;2023-06-24T03:24:11;100159.88;;;24.32;82.84
50430;BME280;36359;41.556;-8.418;2023-06-24T03:26:38;100160.00;;;24.25;83.24
50430;BME280;36359;41.556;-8.418;2023-06-24T03:29:08;100159.53;;;24.16;83.69
50430;BME280;36359;41.556;-8.418;2023-06-24T03:31:34;100151.47;;;24.15;84.47
50430;BME280;36359;41.556;-8.418;2023-06-24T03:34:00;100152.56;;;24.14;85.98
50430;BME280;36359;41.556;-8.418;2023-06-24T03:36:27;100152.22;;;24.10;86.62
50430;BME280;36359;41.556;-8.418;2023-06-24T03:38:53;100146.97;;;24.37;83.83
50430;BME280;36359;41.556;-8.418;2023-06-24T03:41:19;100152.28;;;24.39;84.90
50430;BME280;36359;41.556;-8.418;2023-06-24T03:43:48;100145.44;;;24.30;84.01
50430;BME280;36359;41.556;-8.418;2023-06-24T03:46:14;100150.22;;;24.46;83.34
50430;BME280;36359;41.556;-8.418;2023-06-24T03:48:39;100150.34;;;24.39;84.05
50430;BME280;36359;41.556;-8.418;2023-06-24T03:51:06;100147.34;;;24.17;86.22
50430;BME280;36359;41.556;-8.418;2023-06-24T03:53:32;100154.63;;;24.18;86.36
50430;BME280;36359;41.556;-8.418;2023-06-24T03:55:58;100141.13;;;24.10;87.57
50430;BME280;36359;41.556;-8.418;2023-06-24T03:58:25;100150.28;;;23.99;87.84
50430;BME280;36359;41.556;-8.418;2023-06-24T04:00:50;100153.91;;;23.99;89.54
50430;BME280;36359;41.556;-8.418;2023-06-24T04:03:16;100144.75;;;23.99;88.86
50430;BME280;36359;41.556;-8.418;2023-06-24T04:05:45;100150.91;;;23.89;90.50
50430;BME280;36359;41.556;-8.418;2023-06-24T04:08:10;100140.06;;;23.88;88.57
50430;BME280;36359;41.556;-8.418;2023-06-24T04:10:37;100144.03;;;24.03;89.06
50430;BME280;36359;41.556;-8.418;2023-06-24T04:13:03;100144.25;;;24.14;88.58
50430;BME280;36359;41.556;-8.418;2023-06-24T04:15:30;100145.47;;;24.18;88.72
50430;BME280;36359;41.556;-8.418;2023-06-24T04:17:56;100152.09;;;23.93;90.42
50430;BME280;36359;41.556;-8.418;2023-06-24T04:20:21;100149.69;;;23.97;87.93
50430;BME280;36359;41.556;-8.418;2023-06-24T04:22:47;100144.53;;;24.00;89.88
50430;BME280;36359;41.556;-8.418;2023-06-24T04:25:13;100152.56;;;24.02;89.58
50430;BME280;36359;41.556;-8.418;2023-06-24T04:27:39;100153.78;;;24.06;88.82
50430;BME280;36359;41.556;-8.418;2023-06-24T04:30:07;100157.78;;;23.87;88.83
50430;BME280;36359;41.556;-8.418;2023-06-24T04:32:33;100153.03;;;24.11;88.08
50430;BME280;36359;41.556;-8.418;2023-06-24T04:34:59;100151.84;;;24.18;86.64
50430;BME280;36359;41.556;-8.418;2023-06-24T04:37:28;100157.84;;;24.27;85.95
50430;BME280;36359;41.556;-8.418;2023-06-24T04:39:54;100161.63;;;24.09;86.90
50430;BME280;36359;41.556;-8.418;2023-06-24T04:42:20;100161.81;;;24.19;86.09
50430;BME280;36359;41.556;-8.418;2023-06-24T04:44:46;100162.66;;;24.20;86.05
50430;BME280;36359;41.556;-8.418;2023-06-24T04:47:11;100166.56;;;23.95;87.57
50430;BME280;36359;41.556;-8.418;2023-06-24T04:49:39;100162.69;;;24.08;86.66
50430;BME280;36359;41.556;-8.418;2023-06-24T04:52:07;100154.72;;;24.12;86.24
50430;BME280;36359;41.556;-8.418;2023-06-24T04:54:32;100153.91;;;23.99;87.07
50430;BME280;36359;41.556;-8.418;2023-06-24T04:56:58;100154.22;;;24.15;85.95
50430;BME280;36359;41.556;-8.418;2023-06-24T04:59:23;100158.84;;;24.09;86.50
50430;BME280;36359;41.556;-8.418;2023-06-24T05:01:49;100162.56;;;24.03;86.42
50430;BME280;36359;41.556;-8.418;2023-06-24T05:04:15;100162.81;;;23.90;87.73
50430;BME280;36359;41.556;-8.418;2023-06-24T05:06:40;100166.31;;;23.73;88.79
50430;BME280;36359;41.556;-8.418;2023-06-24T05:09:06;100171.00;;;23.85;88.08
50430;BME280;36359;41.556;-8.418;2023-06-24T05:11:32;100155.63;;;23.89;87.86
50430;BME280;36359;41.556;-8.418;2023-06-24T05:13:58;100164.16;;;23.87;88.44
50430;BME280;36359;41.556;-8.418;2023-06-24T05:16:24;100165.00;;;23.88;88.49
50430;BME280;36359;41.556;-8.418;2023-06-24T05:18:52;100160.91;;;23.78;88.91
50430;BME280;36359;41.556;-8.418;2023-06-24T05:21:18;100157.25;;;23.66;90.13
50430;BME280;36359;41.556;-8.418;2023-06-24T05:23:43;100157.28;;;23.78;89.41
50430;BME280;36359;41.556;-8.418;2023-06-24T05:26:09;100157.38;;;23.60;90.37
50430;BME280;36359;41.556;-8.418;2023-06-24T05:28:36;100156.53;;;23.59;90.43
50430;BME280;36359;41.556;-8.418;2023-06-24T05:31:02;100152.84;;;23.77;88.67
50430;BME280;36359;41.556;-8.418;2023-06-24T05:33:27;100152.47;;;23.85;87.93
50430;BME280;36359;41.556;-8.418;2023-06-24T05:35:53;100144.03;;;23.92;86.90
50430;BME280;36359;41.556;-8.418;2023-06-24T05:38:19;100151.38;;;23.98;86.09
50430;BME280;36359;41.556;-8.418;2023-06-24T05:40:45;100151.38;;;23.98;85.37
50430;BME280;36359;41.556;-8.418;2023-06-24T05:43:10;100150.28;;;23.99;85.05
50430;BME280;36359;41.556;-8.418;2023-06-24T05:45:36;100161.16;;;23.89;86.43
50430;BME280;36359;41.556;-8.418;2023-06-24T05:48:03;100152.47;;;23.85;86.89
50430;BME280;36359;41.556;-8.418;2023-06-24T05:50:28;100156.19;;;23.79;88.46
50430;BME280;36359;41.556;-8.418;2023-06-24T05:52:54;100160.66;;;23.92;88.35
50430;BME280;36359;41.556;-8.418;2023-06-24T05:55:20;100165.34;;;23.91;88.69
50430;BME280;36359;41.556;-8.418;2023-06-24T05:57:45;100159.34;;;24.06;87.58
50430;BME280;36359;41.556;-8.418;2023-06-24T06:00:11;100158.56;;;24.22;85.87
50430;BME280;36359;41.556;-8.418;2023-06-24T06:02:41;100168.69;;;24.29;85.81
50430;BME280;36359;41.556;-8.418;2023-06-24T06:05:07;100167.00;;;24.28;85.45
50430;BME280;36359;41.556;-8.418;2023-06-24T06:07:33;100170.63;;;24.28;85.35
50430;BME280;36359;41.556;-8.418;2023-06-24T06:10:00;100171.81;;;24.20;86.29
50430;BME280;36359;41.556;-8.418;2023-06-24T06:12:26;100168.44;;;24.30;86.53
50430;BME280;36359;41.556;-8.418;2023-06-24T06:14:52;100168.31;;;24.37;85.78
50430;BME280;36359;41.556;-8.418;2023-06-24T06:17:17;100174.84;;;24.31;86.54
50430;BME280;36359;41.556;-8.418;2023-06-24T06:19:43;100171.19;;;24.42;85.42
50430;BME280;36359;41.556;-8.418;2023-06-24T06:22:12;100170.97;;;24.43;85.69
50430;BME280;36359;41.556;-8.418;2023-06-24T06:24:37;100176.59;;;24.60;83.95
50430;BME280;36359;41.556;-8.418;2023-06-24T06:27:03;100182.94;;;24.73;83.46
50430;BME280;36359;41.556;-8.418;2023-06-24T06:29:29;100181.47;;;24.82;83.09
50430;BME280;36359;41.556;-8.418;2023-06-24T06:31:55;100191.56;;;24.88;81.82
50430;BME280;36359;41.556;-8.418;2023-06-24T06:34:22;100192.78;;;24.92;82.21
50430;BME280;36359;41.556;-8.418;2023-06-24T06:36:48;100190.50;;;24.89;82.76
50430;BME280;36359;41.556;-8.418;2023-06-24T06:39:13;100185.00;;;24.94;82.34
50430;BME280;36359;41.556;-8.418;2023-06-24T06:41:39;100185.97;;;25.00;81.86
50430;BME280;36359;41.556;-8.418;2023-06-24T06:44:10;100193.06;;;25.07;80.64
50430;BME280;36359;41.556;-8.418;2023-06-24T06:46:35;100192.44;;;25.17;79.63
50430;BME280;36359;41.556;-8.418;2023-06-24T06:49:01;100197.75;;;25.19;79.57
50430;BME280;36359;41.556;-8.418;2023-06-24T06:51:27;100201.28;;;25.31;78.68
50430;BME280;36359;41.556;-8.418;2023-06-24T06:53:52;100197.59;;;25.42;79.43
50430;BME280;36359;41.556;-8.418;2023-06-24T06:56:27;100202.81;;;25.55;79.97
50430;BME280;36359;41.556;-8.418;2023-06-24T06:58:53;100198.78;;;25.63;77.61
50430;BME280;36359;41.556;-8.418;2023-06-24T07:01:19;100199.97;;;25.67;75.26
50430;BME280;36359;41.556;-8.418;2023-06-24T07:03:45;100205.38;;;25.74;75.19
50430;BME280;36359;41.556;-8.418;2023-06-24T07:06:10;100209.75;;;25.87;75.25
50430;BME280;36359;41.556;-8.418;2023-06-24T07:08:36;100205.72;;;25.94;73.11
50430;BME280;36359;41.556;-8.418;2023-06-24T07:11:02;100203.59;;;25.85;79.37
50430;BME280;36359;41.556;-8.418;2023-06-24T07:13:28;100201.34;;;25.98;76.80
50430;BME280;36359;41.556;-8.418;2023-06-24T07:15:54;100206.72;;;25.88;79.43
50430;BME280;36359;41.556;-8.418;2023-06-24T07:18:20;100200.97;;;25.78;79.65
50430;BME280;36359;41.556;-8.418;2023-06-24T07:20:45;100200.66;;;25.91;79.04
50430;BME280;36359;41.556;-8.418;2023-06-24T07:23:11;100211.19;;;26.06;78.01
50430;BME280;36359;41.556;-8.418;2023-06-24T07:25:37;100210.50;;;26.16;74.20
50430;BME280;36359;41.556;-8.418;2023-06-24T07:28:03;100207.91;;;26.31;72.62
50430;BME280;36359;41.556;-8.418;2023-06-24T07:30:29;100210.34;;;26.44;71.05
50430;BME280;36359;41.556;-8.418;2023-06-24T07:32:54;100214.03;;;26.50;68.93
50430;BME280;36359;41.556;-8.418;2023-06-24T07:35:20;100213.53;;;26.53;68.25
50430;BME280;36359;41.556;-8.418;2023-06-24T07:37:46;100220.13;;;26.69;70.27
50430;BME280;36359;41.556;-8.418;2023-06-24T07:40:12;100215.16;;;26.71;71.39
50430;BME280;36359;41.556;-8.418;2023-06-24T07:42:37;100212.00;;;26.62;72.11
50430;BME280;36359;41.556;-8.418;2023-06-24T07:45:03;100209.25;;;26.67;72.29
50430;BME280;36359;41.556;-8.418;2023-06-24T07:47:29;100217.69;;;26.72;71.53
50430;BME280;36359;41.556;-8.418;2023-06-24T07:49:55;100204.56;;;26.68;72.81
50430;BME280;36359;41.556;-8.418;2023-06-24T07:52:20;100218.81;;;26.77;72.77
50430;BME280;36359;41.556;-8.418;2023-06-24T07:54:46;100216.25;;;26.92;73.02
50430;BME280;36359;41.556;-8.418;2023-06-24T07:57:12;100213.72;;;26.90;73.22
50430;BME280;36359;41.556;-8.418;2023-06-24T07:59:37;100213.50;;;26.97;72.77
50430;BME280;36359;41.556;-8.418;2023-06-24T08:02:03;100213.84;;;27.01;70.96
50430;BME280;36359;41.556;-8.418;2023-06-24T08:04:29;100218.75;;;26.93;72.92
50430;BME280;36359;41.556;-8.418;2023-06-24T08:06:54;100213.31;;;27.04;71.22
50430;BME280;36359;41.556;-8.418;2023-06-24T08:09:20;100218.25;;;27.18;70.58
50430;BME280;36359;41.556;-8.418;2023-06-24T08:11:46;100219.59;;;27.16;70.20
50430;BME280;36359;41.556;-8.418;2023-06-24T08:14:12;100214.41;;;27.25;70.21
50430;BME280;36359;41.556;-8.418;2023-06-24T08:16:37;100221.75;;;27.36;69.68
50430;BME280;36359;41.556;-8.418;2023-06-24T08:19:03;100220.94;;;27.40;70.04
50430;BME280;36359;41.556;-8.418;2023-06-24T08:21:29;100222.84;;;27.62;70.22
50430;BME280;36359;41.556;-8.418;2023-06-24T08:23:55;100223.41;;;27.64;69.36
50430;BME280;36359;41.556;-8.418;2023-06-24T08:26:21;100226.25;;;27.69;68.98
50430;BME280;36359;41.556;-8.418;2023-06-24T08:28:47;100224.03;;;27.71;69.07
50430;BME280;36359;41.556;-8.418;2023-06-24T08:31:13;100217.72;;;27.81;68.65
50430;BME280;36359;41.556;-8.418;2023-06-24T08:33:42;100219.78;;;27.96;67.02
50430;BME280;36359;41.556;-8.418;2023-06-24T08:36:07;100222.63;;;28.01;67.03
50430;BME280;36359;41.556;-8.418;2023-06-24T08:38:33;100217.34;;;28.04;67.00
50430;BME280;36359;41.556;-8.418;2023-06-24T08:40:59;100223.31;;;28.18;66.06
50430;BME280;36359;41.556;-8.418;2023-06-24T08:43:25;100222.81;;;28.31;65.69
50430;BME280;36359;41.556;-8.418;2023-06-24T08:45:50;100221.69;;;28.27;65.36
50430;BME280;36359;41.556;-8.418;2023-06-24T08:48:17;100214.56;;;28.52;64.31
50430;BME280;36359;41.556;-8.418;2023-06-24T08:50:46;100214.91;;;28.61;63.75
50430;BME280;36359;41.556;-8.418;2023-06-24T08:53:16;100211.31;;;28.65;65.55
50430;BME280;36359;41.556;-8.418;2023-06-24T08:55:44;100205.72;;;28.65;64.33
50430;BME280;36359;41.556;-8.418;2023-06-24T08:58:11;100209.69;;;28.85;63.26
50430;BME280;36359;41.556;-8.418;2023-06-24T09:00:36;100206.72;;;29.07;62.67
50430;BME280;36359;41.556;-8.418;2023-06-24T09:03:02;100201.09;;;29.02;63.22
50430;BME280;36359;41.556;-8.418;2023-06-24T09:05:28;100200.81;;;29.03;63.01
50430;BME280;36359;41.556;-8.418;2023-06-24T09:07:54;100200.75;;;28.88;61.18
50430;BME280;36359;41.556;-8.418;2023-06-24T09:10:31;100195.56;;;29.22;61.10
50430;BME280;36359;41.556;-8.418;2023-06-24T09:15:32;100196.69;;;29.21;60.77
50430;BME280;36359;41.556;-8.418;2023-06-24T09:17:59;100194.16;;;29.19;61.18
50430;BME280;36359;41.556;-8.418;2023-06-24T09:20:28;100192.78;;;29.37;60.29
50430;BME280;36359;41.556;-8.418;2023-06-24T09:23:04;100200.38;;;29.68;59.15
50430;BME280;36359;41.556;-8.418;2023-06-24T09:25:31;100195.03;;;29.61;58.48
50430;BME280;36359;41.556;-8.418;2023-06-24T09:28:01;100186.66;;;29.46;56.22
50430;BME280;36359;41.556;-8.418;2023-06-24T09:30:27;100190.31;;;29.72;55.94
50430;BME280;36359;41.556;-8.418;2023-06-24T09:32:53;100188.63;;;29.91;55.85
50430;BME280;36359;41.556;-8.418;2023-06-24T09:35:21;100185.81;;;29.96;54.44
50430;BME280;36359;41.556;-8.418;2023-06-24T09:37:55;100181.34;;;30.00;54.93
50430;BME280;36359;41.556;-8.418;2023-06-24T09:40:22;100188.06;;;30.04;54.08
50430;BME280;36359;41.556;-8.418;2023-06-24T09:45:23;100181.84;;;30.18;54.88
50430;BME280;36359;41.556;-8.418;2023-06-24T09:47:49;100175.75;;;29.95;54.34
50430;BME280;36359;41.556;-8.418;2023-06-24T09:50:15;100175.16;;;30.14;54.08
50430;BME280;36359;41.556;-8.418;2023-06-24T09:52:42;100172.38;;;30.08;54.48
50430;BME280;36359;41.556;-8.418;2023-06-24T09:55:09;100175.13;;;30.39;54.33
50430;BME280;36359;41.556;-8.418;2023-06-24T09:57:35;100168.81;;;30.68;52.15
50430;BME280;36359;41.556;-8.418;2023-06-24T10:00:02;100167.16;;;30.62;52.83
50430;BME280;36359;41.556;-8.418;2023-06-24T10:02:31;100165.91;;;30.33;52.30
50430;BME280;36359;41.556;-8.418;2023-06-24T10:04:59;100167.50;;;30.50;52.74
50430;BME280;36359;41.556;-8.418;2023-06-24T10:07:25;100165.19;;;30.67;53.41
50430;BME280;36359;41.556;-8.418;2023-06-24T10:09:53;100167.66;;;30.84;53.01
50430;BME280;36359;41.556;-8.418;2023-06-24T10:12:19;100165.00;;;31.03;53.34
50430;BME280;36359;41.556;-8.418;2023-06-24T10:14:45;100162.75;;;31.05;52.21
50430;BME280;36359;41.556;-8.418;2023-06-24T10:17:11;100155.03;;;30.92;52.12
50430;BME280;36359;41.556;-8.418;2023-06-24T10:19:38;100164.25;;;30.92;52.92
50430;BME280;36359;41.556;-8.418;2023-06-24T10:22:09;100159.78;;;31.31;51.05
50430;BME280;36359;41.556;-8.418;2023-06-24T10:24:40;100161.34;;;31.47;50.69
50430;BME280;36359;41.556;-8.418;2023-06-24T10:27:18;100166.59;;;31.59;50.05
50430;BME280;36359;41.556;-8.418;2023-06-24T10:29:53;100170.47;;;31.68;49.17
50430;BME280;36359;41.556;-8.418;2023-06-24T10:32:22;100160.25;;;31.48;50.44
50430;BME280;36359;41.556;-8.418;2023-06-24T10:34:54;100158.34;;;31.38;51.53
50430;BME280;36359;41.556;-8.418;2023-06-24T10:37:22;100165.28;;;31.80;49.69
50430;BME280;36359;41.556;-8.418;2023-06-24T10:39:53;100164.53;;;31.35;51.19
50430;BME280;36359;41.556;-8.418;2023-06-24T10:47:35;100164.75;;;31.78;47.87
50430;BME280;36359;41.556;-8.418;2023-06-24T10:50:02;100161.81;;;31.94;47.03
50430;BME280;36359;41.556;-8.418;2023-06-24T10:52:28;100162.19;;;32.11;46.26
50430;BME280;36359;41.556;-8.418;2023-06-24T10:54:56;100161.94;;;32.07;47.71
50430;BME280;36359;41.556;-8.418;2023-06-24T10:57:27;100158.97;;;31.99;47.52
50430;BME280;36359;41.556;-8.418;2023-06-24T10:59:54;100156.09;;;32.04;46.32
50430;BME280;36359;41.556;-8.418;2023-06-24T11:02:22;100153.63;;;31.97;46.98
50430;BME280;36359;41.556;-8.418;2023-06-24T11:04:56;100157.25;;;32.27;45.39
50430;BME280;36359;41.556;-8.418;2023-06-24T11:07:27;100155.19;;;32.32;45.00
50430;BME280;36359;41.556;-8.418;2023-06-24T11:09:55;100157.41;;;32.11;45.65
50430;BME280;36359;41.556;-8.418;2023-06-24T11:12:27;100156.38;;;32.26;45.64
50430;BME280;36359;41.556;-8.418;2023-06-24T11:14:57;100153.72;;;32.16;46.44
50430;BME280;36359;41.556;-8.418;2023-06-24T11:17:26;100146.97;;;31.88;44.42
50430;BME280;36359;41.556;-8.418;2023-06-24T11:19:57;100154.31;;;32.13;44.77
50430;BME280;36359;41.556;-8.418;2023-06-24T11:22:23;100145.41;;;32.06;45.92
50430;BME280;36359;41.556;-8.418;2023-06-24T11:24:49;100154.09;;;32.33;43.65
50430;BME280;36359;41.556;-8.418;2023-06-24T11:27:15;100145.44;;;32.54;42.87
50430;BME280;36359;41.556;-8.418;2023-06-24T11:29:41;100143.19;;;32.75;44.58
50430;BME280;36359;41.556;-8.418;2023-06-24T11:32:08;100142.66;;;32.92;44.07
50430;BME280;36359;41.556;-8.418;2023-06-24T11:34:35;100143.94;;;32.80;43.44
50430;BME280;36359;41.556;-8.418;2023-06-24T11:37:18;100139.31;;;33.28;41.74
50430;BME280;36359;41.556;-8.418;2023-06-24T11:39:44;100135.84;;;33.17;41.45
50430;BME280;36359;41.556;-8.418;2023-06-24T11:42:11;100133.00;;;33.36;41.25
50430;BME280;36359;41.556;-8.418;2023-06-24T11:44:43;100142.16;;;33.28;41.35
50430;BME280;36359;41.556;-8.418;2023-06-24T11:47:10;100134.28;;;33.43;40.48
50430;BME280;36359;41.556;-8.418;2023-06-24T11:49:52;100138.25;;;33.23;42.74
50430;BME280;36359;41.556;-8.418;2023-06-24T11:52:18;100135.50;;;33.37;40.62
50430;BME280;36359;41.556;-8.418;2023-06-24T11:54:44;100130.56;;;33.29;43.37
50430;BME280;36359;41.556;-8.418;2023-06-24T11:57:10;100130.22;;;33.36;42.97
50430;BME280;36359;41.556;-8.418;2023-06-24T11:59:37;100123.19;;;33.52;40.92
50430;BME280;36359;41.556;-8.418;2023-06-24T12:02:03;100137.47;;;33.56;41.95
50430;BME280;36359;41.556;-8.418;2023-06-24T12:04:30;100133.22;;;33.58;41.48
50430;BME280;36359;41.556;-8.418;2023-06-24T12:06:56;100133.81;;;33.55;41.31
50430;BME280;36359;41.556;-8.418;2023-06-24T12:09:22;100133.63;;;33.52;41.99
50430;BME280;36359;41.556;-8.418;2023-06-24T12:11:48;100129.63;;;33.01;42.77
50430;BME280;36359;41.556;-8.418;2023-06-24T12:14:13;100134.50;;;33.47;41.95
50430;BME280;36359;41.556;-8.418;2023-06-24T12:16:39;100132.28;;;33.44;42.21
50430;BME280;36359;41.556;-8.418;2023-06-24T12:19:06;100125.84;;;33.62;42.83
50430;BME280;36359;41.556;-8.418;2023-06-24T12:21:32;100139.09;;;33.76;42.70
50430;BME280;36359;41.556;-8.418;2023-06-24T12:23:58;100134.91;;;33.59;42.97
50430;BME280;36359;41.556;-8.418;2023-06-24T12:26:24;100138.94;;;33.34;43.33
50430;BME280;36359;41.556;-8.418;2023-06-24T12:28:49;100131.06;;;33.50;41.04
50430;BME280;36359;41.556;-8.418;2023-06-24T12:31:15;100131.22;;;33.91;41.28
50430;BME280;36359;41.556;-8.418;2023-06-24T12:33:41;100127.63;;;33.72;41.54
50430;BME280;36359;41.556;-8.418;2023-06-24T12:36:07;100128.16;;;33.88;42.85
50430;BME280;36359;41.556;-8.418;2023-06-24T12:38:32;100125.91;;;34.18;42.46
50430;BME280;36359;41.556;-8.418;2023-06-24T12:40:58;100127.09;;;33.70;43.60
50430;BME280;36359;41.556;-8.418;2023-06-24T12:43:24;100123.84;;;33.63;46.61
50430;BME280;36359;41.556;-8.418;2023-06-24T12:45:49;100119.97;;;33.59;45.45
50430;BME280;36359;41.556;-8.418;2023-06-24T12:48:16;100117.28;;;33.35;47.80
50430;BME280;36359;41.556;-8.418;2023-06-24T12:50:42;100109.91;;;33.72;47.23
50430;BME280;36359;41.556;-8.418;2023-06-24T12:53:08;100116.22;;;33.31;46.61
50430;BME280;36359;41.556;-8.418;2023-06-24T12:55:36;100114.66;;;33.57;48.14
50430;BME280;36359;41.556;-8.418;2023-06-24T12:58:02;100123.44;;;33.69;49.54
50430;BME280;36359;41.556;-8.418;2023-06-24T13:00:28;100118.44;;;33.66;46.98
50430;BME280;36359;41.556;-8.418;2023-06-24T13:02:53;100115.84;;;33.70;48.13
50430;BME280;36359;41.556;-8.418;2023-06-24T13:05:19;100118.97;;;33.36;49.51
50430;BME280;36359;41.556;-8.418;2023-06-24T13:07:45;100108.91;;;33.30;50.59